Lerona, West Virginia
Current Conditions -  °F | °C
As of 10:52 AM on Friday 31 Oct 2014 (Local Time) from KBLF Reporting Station
Overcast Overcast  
Wind Chill: 42°   Ceiling: 2600
Heat Index: 45°   Visibility: 10mi
Dew Point: 35°   Wind: 6mph
Humidity: 68%   Direction: 270°W
Pressure: 29.93"   Gusts: NA
Location:  37.5°N, 80.98°W
Report Text: KBLF 311452Z AUTO 27005KT 10SM OVC026 07/02 A2993 RMK AO2 SLP135 T00720017 58005
Loading
Personal Weather Stations






























Interactive Weather Map
Tropical Storm Tracking
New forecast layout! Learn more

10-Day Weather Forecast

Advertisements
Track Severe Weather on mobile